createdAt,value
2022-11-14T00:06:17.252Z,83.76
2022-11-14T00:16:39.943Z,83.98
2022-11-14T00:27:02.668Z,83.94
2022-11-14T00:37:25.056Z,84.48
2022-11-14T00:47:47.742Z,84.67
2022-11-14T00:58:10.448Z,84.93
2022-11-14T01:08:33.458Z,84.97
2022-11-14T01:18:56.037Z,84.77
2022-11-14T01:29:18.230Z,84.83
2022-11-14T01:39:40.522Z,84.81
2022-11-14T01:50:06.376Z,84.80
2022-11-14T02:00:28.477Z,85.68
2022-11-14T02:10:50.973Z,85.78
2022-11-14T02:21:13.685Z,86.11
2022-11-14T02:31:36.576Z,85.94
2022-11-14T02:41:58.869Z,85.60
2022-11-14T02:52:21.565Z,85.92
2022-11-14T03:02:43.967Z,85.96
2022-11-14T03:13:06.344Z,86.52
2022-11-14T03:23:29.213Z,86.32
2022-11-14T03:33:51.665Z,86.67
2022-11-14T03:44:14.265Z,86.83
2022-11-14T03:54:37.259Z,86.55
2022-11-14T04:05:00.049Z,86.45
2022-11-14T04:15:22.443Z,86.51
2022-11-14T04:25:46.566Z,86.91
2022-11-14T04:36:09.378Z,87.35
2022-11-14T04:46:32.068Z,87.72
2022-11-14T04:56:54.603Z,87.98
2022-11-14T05:07:17.452Z,87.71
2022-11-14T05:17:39.965Z,87.81
2022-11-14T05:28:02.974Z,87.58
2022-11-14T05:38:25.773Z,86.92
2022-11-14T05:48:48.488Z,86.82
2022-11-14T05:59:11.179Z,86.50
2022-11-14T06:09:34.107Z,86.92
2022-11-14T06:19:56.888Z,86.91
2022-11-14T06:30:20.082Z,86.86
2022-11-14T06:40:42.502Z,87.00
2022-11-14T06:51:06.270Z,86.46
2022-11-14T07:01:28.820Z,86.20
2022-11-14T07:11:51.392Z,86.33
2022-11-14T07:22:14.504Z,86.69
2022-11-14T07:32:37.199Z,87.31
2022-11-14T07:43:01.589Z,86.39
2022-11-14T07:53:24.847Z,85.60
2022-11-14T08:03:47.752Z,84.38
2022-11-14T08:14:10.145Z,84.39
2022-11-14T08:24:32.747Z,84.51
2022-11-14T08:34:55.228Z,85.16
2022-11-14T08:45:18.247Z,84.63
2022-11-14T08:55:49.967Z,83.97
2022-11-14T09:06:12.542Z,83.96
2022-11-14T09:16:35.244Z,84.58
2022-11-14T09:26:57.757Z,86.13
2022-11-14T09:37:20.232Z,87.45
2022-11-14T09:47:48.866Z,88.54
2022-11-14T09:58:22.827Z,89.36
2022-11-14T10:09:09.257Z,90.21
2022-11-14T10:19:42.932Z,91.17
2022-11-14T10:30:20.567Z,90.83
2022-11-14T10:41:00.127Z,90.78
2022-11-14T10:51:44.141Z,90.56
2022-11-14T11:02:06.713Z,89.35
2022-11-14T11:12:38.392Z,89.30
2022-11-14T11:23:12.469Z,88.45
2022-11-14T11:33:37.583Z,86.94
2022-11-14T11:44:07.274Z,85.88
2022-11-14T11:54:46.666Z,84.84
2022-11-14T12:05:16.937Z,83.38
2022-11-14T12:15:42.801Z,82.05
2022-11-14T12:26:23.219Z,80.75
2022-11-14T12:36:47.157Z,79.13
2022-11-14T12:47:10.245Z,78.14
2022-11-14T12:57:59.042Z,78.05
2022-11-14T13:09:00.303Z,77.91
2022-11-14T13:19:41.137Z,77.94
2022-11-14T13:30:08.467Z,78.33
2022-11-14T13:40:44.035Z,78.56
2022-11-14T13:51:41.314Z,79.12
2022-11-14T14:02:20.093Z,79.56
2022-11-14T14:12:55.060Z,79.76
2022-11-14T14:23:33.929Z,79.98
2022-11-14T14:33:56.018Z,80.22
2022-11-14T14:44:37.622Z,80.57
2022-11-14T14:55:04.115Z,80.57
2022-11-14T15:05:29.780Z,80.46
2022-11-14T15:15:53.423Z,82.03
2022-11-14T15:26:19.500Z,82.08
2022-11-14T15:37:13.911Z,81.88
2022-11-14T15:47:40.939Z,82.59
2022-11-14T16:08:46.684Z,82.07
2022-11-14T16:19:15.825Z,82.99
2022-11-14T16:29:39.299Z,82.80
2022-11-14T16:40:02.447Z,82.77
2022-11-14T16:50:24.905Z,82.66
2022-11-14T17:00:47.848Z,82.85
2022-11-14T17:11:11.182Z,83.24
2022-11-14T17:21:34.164Z,83.16
2022-11-14T17:31:57.001Z,83.46
2022-11-14T17:42:22.738Z,83.48
2022-11-14T17:52:46.054Z,83.56
2022-11-14T18:03:10.074Z,83.65
2022-11-14T18:13:34.843Z,83.84
2022-11-14T18:24:00.057Z,83.95
2022-11-14T18:34:25.660Z,84.38
2022-11-14T18:44:53.071Z,84.32
2022-11-14T18:55:21.075Z,84.48
2022-11-14T19:05:45.209Z,84.57
2022-11-14T19:16:09.546Z,84.74
2022-11-14T19:26:34.392Z,85.39
2022-11-14T19:37:01.181Z,86.12
2022-11-14T19:47:25.011Z,86.48
2022-11-14T19:57:49.678Z,86.59
2022-11-14T20:08:13.886Z,87.80
2022-11-14T20:18:38.492Z,88.11
2022-11-14T20:29:03.571Z,88.21
2022-11-14T20:39:27.006Z,88.65
2022-11-14T20:49:52.045Z,88.37
2022-11-14T21:00:16.921Z,88.41
2022-11-14T21:10:47.181Z,88.64
2022-11-14T21:21:19.182Z,87.72
2022-11-14T21:31:46.175Z,87.84
2022-11-14T21:42:12.914Z,87.56
2022-11-14T21:52:38.334Z,87.81
2022-11-14T22:03:19.861Z,87.73
2022-11-14T22:13:42.561Z,88.12
2022-11-14T22:24:05.731Z,87.88
2022-11-14T22:34:28.364Z,88.40
2022-11-14T22:44:50.558Z,88.32
2022-11-14T22:55:17.905Z,88.60
2022-11-14T23:05:40.555Z,88.78
2022-11-14T23:16:03.563Z,88.53
2022-11-14T23:26:27.078Z,87.93
2022-11-14T23:36:49.270Z,87.59
2022-11-14T23:47:11.869Z,87.84
2022-11-14T23:57:34.173Z,88.35
